logo tempoitalia

Diretta Meteo Osh, Kyrgyzstanlunedì 31 agosto ore 11:00

Mappa
Sereno 31 °C Sereno 24 Ore: T.min 20 T.max 33
Ponente Nord Km/h 10.8 Punto di rugiada: 14 °C Umidità: 35% Visibilità: 10 Km
Il sole sorge alle: 06:34 Il sole tramonta alle: 19:43
31 Agosto 2026 11:00 tempo osservato: Sereno Sereno 31 35 1012 vento: Nord N 10.8
31 Agosto 2026 10:30 tempo osservato: Sereno Sereno 31 29 1012 vento: Nord N 7.2
31 Agosto 2026 10:00 tempo osservato: Sereno Sereno 30 33 1012 vento: Nord N 3.6
31 Agosto 2026 09:30 tempo osservato: Sereno Sereno 30 30 1012 vento: Nord N 3.6
31 Agosto 2026 09:00 tempo osservato: Sereno Sereno 27 42 1012 vento: Nord N 3.6
31 Agosto 2026 08:30 tempo osservato: Sereno Sereno 25 44 1012 vento: Nord N 7.2
31 Agosto 2026 08:00 tempo osservato: Sereno Sereno 25 41 1012 vento: Nord N 7.2
31 Agosto 2026 07:30 tempo osservato: Sereno Sereno 22 46 1012 vento: Nord N 7.2
31 Agosto 2026 07:00 tempo osservato: Sereno Sereno 21 46 1012 vento: Nord N 7.2
31 Agosto 2026 06:30 tempo osservato: Sereno Sereno 24 33 1011 vento: Nord S 10.8
31 Agosto 2026 06:00 tempo osservato: Sereno Sereno 24 35 1011 vento: Nord S 10.8
31 Agosto 2026 05:30 tempo osservato: Sereno Sereno 24 38 1011 vento: Nord S/SO 10.8
31 Agosto 2026 05:00 tempo osservato: Sereno Sereno 24 38 1011 vento: Nord S/SO 10.8
31 Agosto 2026 04:30 tempo osservato: Sereno Sereno 22 46 1011 vento: Nord N 7.2
31 Agosto 2026 04:00 tempo osservato: Sereno Sereno 25 36 1011 vento: Nord S 14.4
31 Agosto 2026 03:30 tempo osservato: Sereno Sereno 25 36 1011 vento: Nord S 18
31 Agosto 2026 03:00 tempo osservato: Sereno Sereno 25 36 1011 vento: Nord S 18
31 Agosto 2026 02:30 tempo osservato: Sereno Sereno 24 41 1011 vento: Nord S 14.4
31 Agosto 2026 02:00 tempo osservato: Foschia Foschia 22 49 1011 vento: Nord SE 10.8
31 Agosto 2026 01:30 tempo osservato: Sereno Sereno 21 56 1011 vento: Nord N 7.2
31 Agosto 2026 01:00 tempo osservato: Sereno Sereno 20 64 1012 vento: Nord N 3.6
31 Agosto 2026 00:30 tempo osservato: Sereno Sereno 21 60 1012 vento: Nord N 7.2
31 Agosto 2026 00:00 tempo osservato: Sereno Sereno 21 56 1012 vento: Nord N 7.2
30 Agosto 2026 23:30 tempo osservato: Sereno Sereno 22 56 1012 vento: Nord N 3.6
30 Agosto 2026 23:00 tempo osservato: Sereno Sereno 23 49 1012 vento: Nord N 7.2
30 Agosto 2026 22:30 tempo osservato: Sereno Sereno 23 53 1012 vento: Nord SE 10.8
30 Agosto 2026 22:00 tempo osservato: Sereno Sereno 24 50 1012 vento: Nord SE 10.8
30 Agosto 2026 21:30 tempo osservato: Sereno Sereno 24 50 1012 vento: Nord N 7.2
30 Agosto 2026 21:00 tempo osservato: Sereno Sereno 25 47 1012 vento: Nord N 7.2
30 Agosto 2026 20:30 tempo osservato: Sereno Sereno 24 47 1011 vento: Nord N 3.6
30 Agosto 2026 20:00 tempo osservato: Poco Nuvoloso Poco Nuvoloso 27 42 1011 vento: Nord N 3.6
30 Agosto 2026 19:30 tempo osservato: Poco Nuvoloso Poco Nuvoloso 29 37 1011 vento: Nord N 7.2
30 Agosto 2026 19:00 tempo osservato: Poco Nuvoloso Poco Nuvoloso 30 37 1011 vento: Nord N 7.2
30 Agosto 2026 18:30 tempo osservato: Poco Nuvoloso Poco Nuvoloso 31 33 1011 vento: Nord N 3.6
30 Agosto 2026 18:00 tempo osservato: Poco Nuvoloso Poco Nuvoloso 32 29 1011 vento: Nord N 3.6
30 Agosto 2026 17:30 tempo osservato: Poco Nuvoloso Poco Nuvoloso 33 22 1011 vento: Nord N 7.2
30 Agosto 2026 17:00 tempo osservato: Sereno Sereno 33 27 1011 vento: Nord NO 10.8
30 Agosto 2026 16:30 tempo osservato: Sereno Sereno 33 24 1011 vento: Nord O 10.8
30 Agosto 2026 16:00 tempo osservato: Sereno Sereno 33 24 1011 vento: Nord N 7.2
30 Agosto 2026 15:30 tempo osservato: Sereno Sereno 33 26 1011 vento: Nord N 7.2
30 Agosto 2026 15:00 tempo osservato: Sereno Sereno 33 26 1012 vento: Nord NO 10.8
30 Agosto 2026 14:30 tempo osservato: Sereno Sereno 33 26 1012 vento: Nord NO 10.8
30 Agosto 2026 14:00 tempo osservato: Sereno Sereno 33 26 1012 vento: Nord O/NO 14.4
30 Agosto 2026 13:30 tempo osservato: Sereno Sereno 32 25 1012 vento: Nord NO 14.4
30 Agosto 2026 13:00 tempo osservato: Sereno Sereno 32 25 1013 vento: Nord O/NO 14.4
30 Agosto 2026 12:30 tempo osservato: Sereno Sereno 31 31 1013 vento: Nord NO 10.8
30 Agosto 2026 12:00 tempo osservato: Sereno Sereno 31 29 1013 vento: Nord O/NO 10.8